<?xml version="1.0" encoding="UTF-8" standalone="no" ?>
<gpx xmlns="http://www.topografix.com/GPX/1/1" xmlns:xsi="http://www.w3.org/2001/XMLSchema-instance" xsi:schemaLocation="http://www.topografix.com/GPX/1/1 http://www.topografix.com/GPX/1/1/gpx.xsd" version="1.1" creator="VisuGPX - https://www.visugpx.com">
  <metadata>
    <name>Etape 2 Férel - Les Moûtiers</name>
    <desc><![CDATA[Randonnée vélo Rennes - Hendaye, empruntant la Vélodyssée à partir de Saint-Brevin-Les-Pins. ]]></desc>
  </metadata>
  <trk>
    <name><![CDATA[Sequence 3]]></name>
    <trkseg>
      <trkpt lat="47.45017" lon="-2.31378">
        <ele>6</ele>
        <time>2016-07-22T05:04:53Z</time>
      </trkpt>
      <trkpt lat="47.45017" lon="-2.31378">
        <ele>6</ele>
        <time>2016-07-22T05:04:58Z</time>
      </trkpt>
      <trkpt lat="47.45017" lon="-2.31379">
        <ele>6</ele>
        <time>2016-07-22T05:05:03Z</time>
      </trkpt>
      <trkpt lat="47.45016" lon="-2.3138">
        <ele>6</ele>
        <time>2016-07-22T05:05:08Z</time>
      </trkpt>
      <trkpt lat="47.45001" lon="-2.31371">
        <ele>6</ele>
        <time>2016-07-22T05:05:13Z</time>
      </trkpt>
      <trkpt lat="47.44976" lon="-2.31362">
        <ele>6</ele>
        <time>2016-07-22T05:05:19Z</time>
      </trkpt>
      <trkpt lat="47.44957" lon="-2.31364">
        <ele>5</ele>
        <time>2016-07-22T05:05:23Z</time>
      </trkpt>
      <trkpt lat="47.44928" lon="-2.31374">
        <ele>6</ele>
        <time>2016-07-22T05:05:30Z</time>
      </trkpt>
      <trkpt lat="47.4492" lon="-2.31357">
        <ele>6</ele>
        <time>2016-07-22T05:05:33Z</time>
      </trkpt>
      <trkpt lat="47.44921" lon="-2.3132">
        <ele>6</ele>
        <time>2016-07-22T05:05:38Z</time>
      </trkpt>
      <trkpt lat="47.44923" lon="-2.31285">
        <ele>7</ele>
        <time>2016-07-22T05:05:43Z</time>
      </trkpt>
      <trkpt lat="47.44924" lon="-2.31217">
        <ele>9</ele>
        <time>2016-07-22T05:05:51Z</time>
      </trkpt>
      <trkpt lat="47.44923" lon="-2.31192">
        <ele>9</ele>
        <time>2016-07-22T05:05:54Z</time>
      </trkpt>
      <trkpt lat="47.44924" lon="-2.3115">
        <ele>11</ele>
        <time>2016-07-22T05:05:59Z</time>
      </trkpt>
      <trkpt lat="47.44924" lon="-2.31117">
        <ele>8</ele>
        <time>2016-07-22T05:06:03Z</time>
      </trkpt>
      <trkpt lat="47.44922" lon="-2.3108">
        <ele>10</ele>
        <time>2016-07-22T05:06:08Z</time>
      </trkpt>
      <trkpt lat="47.44921" lon="-2.31036">
        <ele>10</ele>
        <time>2016-07-22T05:06:14Z</time>
      </trkpt>
      <trkpt lat="47.44922" lon="-2.30978">
        <ele>8</ele>
        <time>2016-07-22T05:06:21Z</time>
      </trkpt>
      <trkpt lat="47.44921" lon="-2.3096">
        <ele>8</ele>
        <time>2016-07-22T05:06:23Z</time>
      </trkpt>
      <trkpt lat="47.4492" lon="-2.30918">
        <ele>8</ele>
        <time>2016-07-22T05:06:28Z</time>
      </trkpt>
      <trkpt lat="47.44918" lon="-2.30867">
        <ele>8</ele>
        <time>2016-07-22T05:06:34Z</time>
      </trkpt>
      <trkpt lat="47.44917" lon="-2.30814">
        <ele>9</ele>
        <time>2016-07-22T05:06:40Z</time>
      </trkpt>
      <trkpt lat="47.44916" lon="-2.30795">
        <ele>7</ele>
        <time>2016-07-22T05:06:43Z</time>
      </trkpt>
      <trkpt lat="47.44914" lon="-2.30756">
        <ele>5</ele>
        <time>2016-07-22T05:06:48Z</time>
      </trkpt>
      <trkpt lat="47.44913" lon="-2.30714">
        <ele>4</ele>
        <time>2016-07-22T05:06:53Z</time>
      </trkpt>
      <trkpt lat="47.44911" lon="-2.30674">
        <ele>3</ele>
        <time>2016-07-22T05:06:58Z</time>
      </trkpt>
      <trkpt lat="47.44909" lon="-2.30629">
        <ele>3</ele>
        <time>2016-07-22T05:07:04Z</time>
      </trkpt>
      <trkpt lat="47.44909" lon="-2.3059">
        <ele>5</ele>
        <time>2016-07-22T05:07:09Z</time>
      </trkpt>
      <trkpt lat="47.44906" lon="-2.30533">
        <ele>7</ele>
        <time>2016-07-22T05:07:16Z</time>
      </trkpt>
      <trkpt lat="47.44906" lon="-2.30517">
        <ele>6</ele>
        <time>2016-07-22T05:07:18Z</time>
      </trkpt>
      <trkpt lat="47.44905" lon="-2.30458">
        <ele>8</ele>
        <time>2016-07-22T05:07:25Z</time>
      </trkpt>
      <trkpt lat="47.44903" lon="-2.30422">
        <ele>8</ele>
        <time>2016-07-22T05:07:30Z</time>
      </trkpt>
      <trkpt lat="47.44901" lon="-2.30368">
        <ele>7</ele>
        <time>2016-07-22T05:07:37Z</time>
      </trkpt>
      <trkpt lat="47.44901" lon="-2.30359">
        <ele>6</ele>
        <time>2016-07-22T05:07:38Z</time>
      </trkpt>
      <trkpt lat="47.44901" lon="-2.30317">
        <ele>8</ele>
        <time>2016-07-22T05:07:43Z</time>
      </trkpt>
      <trkpt lat="47.449" lon="-2.30268">
        <ele>8</ele>
        <time>2016-07-22T05:07:49Z</time>
      </trkpt>
      <trkpt lat="47.449" lon="-2.30217">
        <ele>6</ele>
        <time>2016-07-22T05:07:55Z</time>
      </trkpt>
      <trkpt lat="47.44899" lon="-2.30192">
        <ele>3</ele>
        <time>2016-07-22T05:07:58Z</time>
      </trkpt>
      <trkpt lat="47.44898" lon="-2.30156">
        <ele>3</ele>
        <time>2016-07-22T05:08:03Z</time>
      </trkpt>
      <trkpt lat="47.44896" lon="-2.30122">
        <ele>5</ele>
        <time>2016-07-22T05:08:08Z</time>
      </trkpt>
      <trkpt lat="47.44893" lon="-2.30076">
        <ele>7</ele>
        <time>2016-07-22T05:08:14Z</time>
      </trkpt>
      <trkpt lat="47.44893" lon="-2.30042">
        <ele>5</ele>
        <time>2016-07-22T05:08:18Z</time>
      </trkpt>
      <trkpt lat="47.44891" lon="-2.29979">
        <ele>7</ele>
        <time>2016-07-22T05:08:26Z</time>
      </trkpt>
      <trkpt lat="47.44891" lon="-2.29963">
        <ele>6</ele>
        <time>2016-07-22T05:08:28Z</time>
      </trkpt>
      <trkpt lat="47.44891" lon="-2.29914">
        <ele>4</ele>
        <time>2016-07-22T05:08:34Z</time>
      </trkpt>
      <trkpt lat="47.4489" lon="-2.29863">
        <ele>2</ele>
        <time>2016-07-22T05:08:40Z</time>
      </trkpt>
      <trkpt lat="47.44888" lon="-2.29839">
        <ele>3</ele>
        <time>2016-07-22T05:08:43Z</time>
      </trkpt>
      <trkpt lat="47.44885" lon="-2.29767">
        <ele>2</ele>
        <time>2016-07-22T05:08:52Z</time>
      </trkpt>
      <trkpt lat="47.44884" lon="-2.29759">
        <ele>2</ele>
        <time>2016-07-22T05:08:53Z</time>
      </trkpt>
      <trkpt lat="47.44883" lon="-2.29717">
        <ele>2</ele>
        <time>2016-07-22T05:08:58Z</time>
      </trkpt>
      <trkpt lat="47.44879" lon="-2.29669">
        <ele>8</ele>
        <time>2016-07-22T05:09:04Z</time>
      </trkpt>
      <trkpt lat="47.44879" lon="-2.29624">
        <ele>9</ele>
        <time>2016-07-22T05:09:10Z</time>
      </trkpt>
      <trkpt lat="47.4488" lon="-2.29579">
        <ele>7</ele>
        <time>2016-07-22T05:09:16Z</time>
      </trkpt>
      <trkpt lat="47.4488" lon="-2.29563">
        <ele>5</ele>
        <time>2016-07-22T05:09:18Z</time>
      </trkpt>
      <trkpt lat="47.44878" lon="-2.29524">
        <ele>5</ele>
        <time>2016-07-22T05:09:23Z</time>
      </trkpt>
      <trkpt lat="47.44876" lon="-2.29486">
        <ele>6</ele>
        <time>2016-07-22T05:09:28Z</time>
      </trkpt>
      <trkpt lat="47.44874" lon="-2.29448">
        <ele>7</ele>
        <time>2016-07-22T05:09:33Z</time>
      </trkpt>
      <trkpt lat="47.44873" lon="-2.29411">
        <ele>7</ele>
        <time>2016-07-22T05:09:38Z</time>
      </trkpt>
      <trkpt lat="47.4487" lon="-2.29367">
        <ele>11</ele>
        <time>2016-07-22T05:09:44Z</time>
      </trkpt>
      <trkpt lat="47.4487" lon="-2.29334">
        <ele>14</ele>
        <time>2016-07-22T05:09:48Z</time>
      </trkpt>
      <trkpt lat="47.44869" lon="-2.29293">
        <ele>14</ele>
        <time>2016-07-22T05:09:53Z</time>
      </trkpt>
      <trkpt lat="47.44869" lon="-2.29252">
        <ele>17</ele>
        <time>2016-07-22T05:09:58Z</time>
      </trkpt>
      <trkpt lat="47.44867" lon="-2.29202">
        <ele>15</ele>
        <time>2016-07-22T05:10:05Z</time>
      </trkpt>
      <trkpt lat="47.44865" lon="-2.29178">
        <ele>15</ele>
        <time>2016-07-22T05:10:08Z</time>
      </trkpt>
      <trkpt lat="47.44864" lon="-2.29141">
        <ele>18</ele>
        <time>2016-07-22T05:10:13Z</time>
      </trkpt>
      <trkpt lat="47.44864" lon="-2.29102">
        <ele>17</ele>
        <time>2016-07-22T05:10:18Z</time>
      </trkpt>
      <trkpt lat="47.44862" lon="-2.29063">
        <ele>15</ele>
        <time>2016-07-22T05:10:23Z</time>
      </trkpt>
      <trkpt lat="47.44861" lon="-2.29023">
        <ele>13</ele>
        <time>2016-07-22T05:10:28Z</time>
      </trkpt>
      <trkpt lat="47.44854" lon="-2.28989">
        <ele>16</ele>
        <time>2016-07-22T05:10:33Z</time>
      </trkpt>
      <trkpt lat="47.44855" lon="-2.28946">
        <ele>16</ele>
        <time>2016-07-22T05:10:39Z</time>
      </trkpt>
      <trkpt lat="47.44856" lon="-2.28881">
        <ele>17</ele>
        <time>2016-07-22T05:10:47Z</time>
      </trkpt>
      <trkpt lat="47.44857" lon="-2.28836">
        <ele>13</ele>
        <time>2016-07-22T05:10:52Z</time>
      </trkpt>
      <trkpt lat="47.44856" lon="-2.28828">
        <ele>13</ele>
        <time>2016-07-22T05:10:53Z</time>
      </trkpt>
      <trkpt lat="47.44854" lon="-2.28769">
        <ele>9</ele>
        <time>2016-07-22T05:10:59Z</time>
      </trkpt>
      <trkpt lat="47.44853" lon="-2.28729">
        <ele>6</ele>
        <time>2016-07-22T05:11:03Z</time>
      </trkpt>
      <trkpt lat="47.4485" lon="-2.28675">
        <ele>6</ele>
        <time>2016-07-22T05:11:08Z</time>
      </trkpt>
      <trkpt lat="47.44848" lon="-2.28607">
        <ele>9</ele>
        <time>2016-07-22T05:11:15Z</time>
      </trkpt>
      <trkpt lat="47.44846" lon="-2.28553">
        <ele>6</ele>
        <time>2016-07-22T05:11:20Z</time>
      </trkpt>
      <trkpt lat="47.44847" lon="-2.28525">
        <ele>4</ele>
        <time>2016-07-22T05:11:23Z</time>
      </trkpt>
      <trkpt lat="47.44843" lon="-2.28476">
        <ele>5</ele>
        <time>2016-07-22T05:11:28Z</time>
      </trkpt>
      <trkpt lat="47.4484" lon="-2.28428">
        <ele>5</ele>
        <time>2016-07-22T05:11:33Z</time>
      </trkpt>
      <trkpt lat="47.44833" lon="-2.28375">
        <ele>7</ele>
        <time>2016-07-22T05:11:39Z</time>
      </trkpt>
      <trkpt lat="47.4483" lon="-2.2834">
        <ele>5</ele>
        <time>2016-07-22T05:11:43Z</time>
      </trkpt>
      <trkpt lat="47.44826" lon="-2.28301">
        <ele>7</ele>
        <time>2016-07-22T05:11:48Z</time>
      </trkpt>
      <trkpt lat="47.44818" lon="-2.28259">
        <ele>6</ele>
        <time>2016-07-22T05:11:53Z</time>
      </trkpt>
      <trkpt lat="47.44815" lon="-2.28213">
        <ele>3</ele>
        <time>2016-07-22T05:11:58Z</time>
      </trkpt>
      <trkpt lat="47.44807" lon="-2.28149">
        <ele>4</ele>
        <time>2016-07-22T05:12:06Z</time>
      </trkpt>
      <trkpt lat="47.44806" lon="-2.28133">
        <ele>7</ele>
        <time>2016-07-22T05:12:08Z</time>
      </trkpt>
      <trkpt lat="47.448" lon="-2.28097">
        <ele>5</ele>
        <time>2016-07-22T05:12:13Z</time>
      </trkpt>
      <trkpt lat="47.44796" lon="-2.28048">
        <ele>3</ele>
        <time>2016-07-22T05:12:19Z</time>
      </trkpt>
      <trkpt lat="47.44794" lon="-2.28014">
        <ele>4</ele>
        <time>2016-07-22T05:12:23Z</time>
      </trkpt>
      <trkpt lat="47.4479" lon="-2.27971">
        <ele>1</ele>
        <time>2016-07-22T05:12:28Z</time>
      </trkpt>
      <trkpt lat="47.44783" lon="-2.27927">
        <ele>3</ele>
        <time>2016-07-22T05:12:34Z</time>
      </trkpt>
      <trkpt lat="47.4478" lon="-2.27868">
        <ele>1</ele>
        <time>2016-07-22T05:12:41Z</time>
      </trkpt>
      <trkpt lat="47.44776" lon="-2.27819">
        <ele>3</ele>
        <time>2016-07-22T05:12:47Z</time>
      </trkpt>
      <trkpt lat="47.44775" lon="-2.27808">
        <ele>4</ele>
        <time>2016-07-22T05:12:48Z</time>
      </trkpt>
      <trkpt lat="47.44769" lon="-2.27772">
        <ele>6</ele>
        <time>2016-07-22T05:12:53Z</time>
      </trkpt>
      <trkpt lat="47.44767" lon="-2.27734">
        <ele>4</ele>
        <time>2016-07-22T05:12:58Z</time>
      </trkpt>
      <trkpt lat="47.44762" lon="-2.27699">
        <ele>5</ele>
        <time>2016-07-22T05:13:03Z</time>
      </trkpt>
      <trkpt lat="47.4476" lon="-2.27657">
        <ele>4</ele>
        <time>2016-07-22T05:13:08Z</time>
      </trkpt>
      <trkpt lat="47.44754" lon="-2.27621">
        <ele>9</ele>
        <time>2016-07-22T05:13:13Z</time>
      </trkpt>
      <trkpt lat="47.44749" lon="-2.27571">
        <ele>8</ele>
        <time>2016-07-22T05:13:19Z</time>
      </trkpt>
      <trkpt lat="47.44744" lon="-2.27516">
        <ele>3</ele>
        <time>2016-07-22T05:13:26Z</time>
      </trkpt>
      <trkpt lat="47.44743" lon="-2.27501">
        <ele>4</ele>
        <time>2016-07-22T05:13:28Z</time>
      </trkpt>
      <trkpt lat="47.44737" lon="-2.27453">
        <ele>4</ele>
        <time>2016-07-22T05:13:34Z</time>
      </trkpt>
      <trkpt lat="47.44735" lon="-2.2742">
        <ele>5</ele>
        <time>2016-07-22T05:13:38Z</time>
      </trkpt>
      <trkpt lat="47.4473" lon="-2.27374">
        <ele>2</ele>
        <time>2016-07-22T05:13:44Z</time>
      </trkpt>
      <trkpt lat="47.44723" lon="-2.27318">
        <ele>2</ele>
        <time>2016-07-22T05:13:51Z</time>
      </trkpt>
      <trkpt lat="47.44719" lon="-2.27296">
        <ele>2</ele>
        <time>2016-07-22T05:13:54Z</time>
      </trkpt>
      <trkpt lat="47.44716" lon="-2.27261">
        <ele>2</ele>
        <time>2016-07-22T05:13:59Z</time>
      </trkpt>
      <trkpt lat="47.44712" lon="-2.27225">
        <ele>2</ele>
        <time>2016-07-22T05:14:04Z</time>
      </trkpt>
      <trkpt lat="47.44711" lon="-2.27193">
        <ele>2</ele>
        <time>2016-07-22T05:14:08Z</time>
      </trkpt>
      <trkpt lat="47.44707" lon="-2.27146">
        <ele>1</ele>
        <time>2016-07-22T05:14:14Z</time>
      </trkpt>
      <trkpt lat="47.44703" lon="-2.27115">
        <ele>5</ele>
        <time>2016-07-22T05:14:18Z</time>
      </trkpt>
      <trkpt lat="47.44699" lon="-2.27076">
        <ele>4</ele>
        <time>2016-07-22T05:14:23Z</time>
      </trkpt>
      <trkpt lat="47.44694" lon="-2.27041">
        <ele>5</ele>
        <time>2016-07-22T05:14:28Z</time>
      </trkpt>
      <trkpt lat="47.4469" lon="-2.27004">
        <ele>6</ele>
        <time>2016-07-22T05:14:33Z</time>
      </trkpt>
      <trkpt lat="47.44687" lon="-2.2697">
        <ele>7</ele>
        <time>2016-07-22T05:14:38Z</time>
      </trkpt>
      <trkpt lat="47.44682" lon="-2.26932">
        <ele>6</ele>
        <time>2016-07-22T05:14:43Z</time>
      </trkpt>
      <trkpt lat="47.44679" lon="-2.26883">
        <ele>4</ele>
        <time>2016-07-22T05:14:49Z</time>
      </trkpt>
      <trkpt lat="47.44675" lon="-2.26855">
        <ele>6</ele>
        <time>2016-07-22T05:14:53Z</time>
      </trkpt>
      <trkpt lat="47.4467" lon="-2.26822">
        <ele>8</ele>
        <time>2016-07-22T05:14:58Z</time>
      </trkpt>
      <trkpt lat="47.44666" lon="-2.26784">
        <ele>7</ele>
        <time>2016-07-22T05:15:04Z</time>
      </trkpt>
      <trkpt lat="47.44664" lon="-2.26755">
        <ele>5</ele>
        <time>2016-07-22T05:15:08Z</time>
      </trkpt>
      <trkpt lat="47.44662" lon="-2.26718">
        <ele>4</ele>
        <time>2016-07-22T05:15:13Z</time>
      </trkpt>
      <trkpt lat="47.44658" lon="-2.2667">
        <ele>4</ele>
        <time>2016-07-22T05:15:20Z</time>
      </trkpt>
      <trkpt lat="47.44655" lon="-2.26621">
        <ele>3</ele>
        <time>2016-07-22T05:15:27Z</time>
      </trkpt>
      <trkpt lat="47.44654" lon="-2.26613">
        <ele>5</ele>
        <time>2016-07-22T05:15:28Z</time>
      </trkpt>
      <trkpt lat="47.44654" lon="-2.26567">
        <ele>3</ele>
        <time>2016-07-22T05:15:34Z</time>
      </trkpt>
      <trkpt lat="47.44652" lon="-2.26515">
        <ele>6</ele>
        <time>2016-07-22T05:15:42Z</time>
      </trkpt>
      <trkpt lat="47.44653" lon="-2.26486">
        <ele>4</ele>
        <time>2016-07-22T05:15:46Z</time>
      </trkpt>
      <trkpt lat="47.44653" lon="-2.26465">
        <ele>7</ele>
        <time>2016-07-22T05:15:49Z</time>
      </trkpt>
      <trkpt lat="47.44651" lon="-2.26422">
        <ele>5</ele>
        <time>2016-07-22T05:15:55Z</time>
      </trkpt>
      <trkpt lat="47.44651" lon="-2.26399">
        <ele>3</ele>
        <time>2016-07-22T05:15:58Z</time>
      </trkpt>
      <trkpt lat="47.4465" lon="-2.26363">
        <ele>5</ele>
        <time>2016-07-22T05:16:03Z</time>
      </trkpt>
      <trkpt lat="47.44647" lon="-2.2632">
        <ele>2</ele>
        <time>2016-07-22T05:16:09Z</time>
      </trkpt>
      <trkpt lat="47.44647" lon="-2.26293">
        <ele>2</ele>
        <time>2016-07-22T05:16:13Z</time>
      </trkpt>
      <trkpt lat="47.44645" lon="-2.26259">
        <ele>4</ele>
        <time>2016-07-22T05:16:18Z</time>
      </trkpt>
      <trkpt lat="47.44646" lon="-2.26219">
        <ele>1</ele>
        <time>2016-07-22T05:16:23Z</time>
      </trkpt>
      <trkpt lat="47.44644" lon="-2.26178">
        <ele>3</ele>
        <time>2016-07-22T05:16:28Z</time>
      </trkpt>
      <trkpt lat="47.44641" lon="-2.2614">
        <ele>3</ele>
        <time>2016-07-22T05:16:33Z</time>
      </trkpt>
      <trkpt lat="47.44638" lon="-2.26095">
        <ele>2</ele>
        <time>2016-07-22T05:16:39Z</time>
      </trkpt>
      <trkpt lat="47.44639" lon="-2.2603">
        <ele>5</ele>
        <time>2016-07-22T05:16:47Z</time>
      </trkpt>
      <trkpt lat="47.44639" lon="-2.26023">
        <ele>5</ele>
        <time>2016-07-22T05:16:48Z</time>
      </trkpt>
      <trkpt lat="47.44634" lon="-2.25955">
        <ele>8</ele>
        <time>2016-07-22T05:16:57Z</time>
      </trkpt>
      <trkpt lat="47.44634" lon="-2.25947">
        <ele>8</ele>
        <time>2016-07-22T05:16:58Z</time>
      </trkpt>
      <trkpt lat="47.44633" lon="-2.25876">
        <ele>6</ele>
        <time>2016-07-22T05:17:07Z</time>
      </trkpt>
      <trkpt lat="47.44633" lon="-2.25861">
        <ele>5</ele>
        <time>2016-07-22T05:17:09Z</time>
      </trkpt>
      <trkpt lat="47.44631" lon="-2.25831">
        <ele>5</ele>
        <time>2016-07-22T05:17:13Z</time>
      </trkpt>
      <trkpt lat="47.4463" lon="-2.25771">
        <ele>3</ele>
        <time>2016-07-22T05:17:21Z</time>
      </trkpt>
      <trkpt lat="47.4463" lon="-2.25756">
        <ele>3</ele>
        <time>2016-07-22T05:17:23Z</time>
      </trkpt>
      <trkpt lat="47.44627" lon="-2.25723">
        <ele>5</ele>
        <time>2016-07-22T05:17:28Z</time>
      </trkpt>
      <trkpt lat="47.44626" lon="-2.25659">
        <ele>7</ele>
        <time>2016-07-22T05:17:37Z</time>
      </trkpt>
      <trkpt lat="47.44625" lon="-2.25652">
        <ele>7</ele>
        <time>2016-07-22T05:17:38Z</time>
      </trkpt>
      <trkpt lat="47.44624" lon="-2.25616">
        <ele>7</ele>
        <time>2016-07-22T05:17:43Z</time>
      </trkpt>
      <trkpt lat="47.4462" lon="-2.2557">
        <ele>7</ele>
        <time>2016-07-22T05:17:49Z</time>
      </trkpt>
      <trkpt lat="47.4462" lon="-2.25538">
        <ele>7</ele>
        <time>2016-07-22T05:17:53Z</time>
      </trkpt>
      <trkpt lat="47.44617" lon="-2.25498">
        <ele>6</ele>
        <time>2016-07-22T05:17:58Z</time>
      </trkpt>
      <trkpt lat="47.44614" lon="-2.25461">
        <ele>5</ele>
        <time>2016-07-22T05:18:03Z</time>
      </trkpt>
      <trkpt lat="47.44611" lon="-2.25426">
        <ele>4</ele>
        <time>2016-07-22T05:18:08Z</time>
      </trkpt>
      <trkpt lat="47.44606" lon="-2.25394">
        <ele>5</ele>
        <time>2016-07-22T05:18:13Z</time>
      </trkpt>
      <trkpt lat="47.44603" lon="-2.25382">
        <ele>3</ele>
        <time>2016-07-22T05:18:18Z</time>
      </trkpt>
      <trkpt lat="47.44602" lon="-2.25384">
        <ele>4</ele>
        <time>2016-07-22T05:18:23Z</time>
      </trkpt>
    </trkseg>
  </trk>
</gpx>